Latest Weather Observations for Point Wilson

IDV60901

Issued at 6:11 pm EDT Monday 2 March 2015 (issued every 10 minutes, with the page automatically refreshed every 10 minutes)

About weather observations | Map of Melbourne area stations | Latest observations for Melbourne area | Other Formats
Station Details ID: 087166 Name: POINT WILSON Lat: -38.10 Lon: 144.54 Height: 18.0 m
Data from the previous 72 hours. | See also: Recent months at Point Wilson
Date/Time
EDT
Tmp

°C
App
Tmp
°C
Dew
Point
°C
Rel
Hum
%
Delta-T

°C
Wind Press
QNH
hPa
Press
MSL
hPa
Rain
since
9 am
mm
Dir
 
Spd
km/h
Gust
km/h
Spd
kts
Gust
kts
02/06:00pm - - - - - ENE 7 9 4 5 - - -
02/05:30pm - - - - - SE 2 7 1 4 - - -
02/05:00pm - - - - - SE 7 9 4 5 - - -
02/04:30pm - - - - - ESE 7 9 4 5 - - -
02/04:00pm - - - - - CALM 0 0 0 0 - - -
02/03:30pm - - - - - SE 4 11 2 6 - - -
02/03:00pm - - - - - E 11 15 6 8 - - -
02/02:30pm - - - - - E 11 15 6 8 - - -
02/02:00pm - - - - - E 11 13 6 7 - - -
02/01:30pm - - - - - E 13 15 7 8 - - -
02/01:00pm - - - - - E 13 17 7 9 - - -
02/12:30pm - - - - - E 11 15 6 8 - - -
02/12:00pm - - - - - ENE 13 17 7 9 - - -
02/11:30am - - - - - NE 19 24 10 13 - - -
02/11:00am - - - - - ENE 17 20 9 11 - - -
02/10:30am - - - - - NNE 15 20 8 11 - - -
02/10:00am - - - - - N 11 15 6 8 - - -
02/09:30am - - - - - NNW 9 13 5 7 - - -
02/09:00am - - - - - NW 13 15 7 8 - - -
02/08:30am - - - - - NW 19 20 10 11 - - -
02/08:00am - - - - - NNW 17 20 9 11 - - -
02/07:30am - - - - - W 11 15 6 8 - - -
02/07:00am - - - - - WNW 13 15 7 8 - - -
02/06:30am - - - - - SSE 7 13 4 7 - - -
02/06:00am - - - - - W 9 11 5 6 - - -
02/05:30am - - - - - WNW 15 17 8 9 - - -
02/05:00am - - - - - WNW 17 20 9 11 - - -
02/04:30am - - - - - WNW 17 19 9 10 - - -
02/04:00am - - - - - WNW 15 17 8 9 - - -
02/03:30am - - - - - NW 15 17 8 9 - - -
02/03:00am - - - - - WSW 9 13 5 7 - - -
02/02:30am - - - - - W 17 20 9 11 - - -
02/02:00am - - - - - W 20 24 11 13 - - -
02/01:30am - - - - - WNW 17 20 9 11 - - -
02/01:00am - - - - - SW 11 17 6 9 - - -
02/12:30am - - - - - S 13 17 7 9 - - -
02/12:00am - - - - - S 15 20 8 11 - - -
 
Date/Time
EDT
Tmp

°C
App
Tmp
°C
Dew
Point
°C
Rel
Hum
%
Delta-T

°C
Wind Press
QNH
hPa
Press
MSL
hPa
Rain
since
9 am
mm
Dir
 
Spd
km/h
Gust
km/h
Spd
kts
Gust
kts
01/11:30pm - - - - - S 17 22 9 12 - - -
01/11:00pm - - - - - SSW 19 24 10 13 - - -
01/10:30pm - - - - - S 19 26 10 14 - - -
01/10:00pm - - - - - S 20 24 11 13 - - -
01/09:30pm - - - - - SSW 26 30 14 16 - - -
01/09:00pm - - - - - SSW 26 32 14 17 - - -
01/08:30pm - - - - - SSW 28 33 15 18 - - -
01/08:00pm - - - - - S 30 37 16 20 - - -
01/07:30pm - - - - - SSW 33 39 18 21 - - -
01/07:00pm - - - - - SSW 35 41 19 22 - - -
01/06:30pm - - - - - S 37 43 20 23 - - -
01/06:00pm - - - - - SSW 39 44 21 24 - - -
01/05:30pm - - - - - S 39 44 21 24 - - -
01/05:00pm - - - - - S 39 44 21 24 - - -
01/04:30pm - - - - - S 39 44 21 24 - - -
01/04:00pm - - - - - S 35 43 19 23 - - -
01/03:30pm - - - - - S 37 44 20 24 - - -
01/03:00pm - - - - - SSW 35 43 19 23 - - -
01/02:30pm - - - - - S 32 39 17 21 - - -
01/02:00pm - - - - - SSW 32 41 17 22 - - -
01/01:30pm - - - - - SSW 32 39 17 21 - - -
01/01:00pm - - - - - SSW 33 39 18 21 - - -
01/12:30pm - - - - - SSW 32 37 17 20 - - -
01/12:00pm - - - - - SSW 30 37 16 20 - - -
01/11:30am - - - - - SSW 30 35 16 19 - - -
01/11:00am - - - - - SSW 30 35 16 19 - - -
01/10:30am - - - - - SW 22 28 12 15 - - -
01/10:00am - - - - - WSW 19 22 10 12 - - -
01/09:30am - - - - - WSW 22 26 12 14 - - -
01/09:00am - - - - - WSW 22 26 12 14 - - -
01/08:30am - - - - - WSW 22 28 12 15 - - -
01/08:00am - - - - - W 22 28 12 15 - - -
01/07:30am - - - - - W 24 28 13 15 - - -
01/07:00am - - - - - W 24 32 13 17 - - -
01/06:30am - - - - - WSW 26 32 14 17 - - -
01/06:00am - - - - - WSW 26 32 14 17 - - -
01/05:30am - - - - - WSW 30 39 16 21 - - -
01/05:00am - - - - - WSW 33 37 18 20 - - -
01/04:30am - - - - - WSW 30 35 16 19 - - -
01/04:00am - - - - - WSW 33 39 18 21 - - -
01/03:30am - - - - - SW 33 37 18 20 - - -
01/03:00am - - - - - SW 28 35 15 19 - - -
01/02:30am - - - - - SW 37 43 20 23 - - -
01/02:00am - - - - - SW 37 46 20 25 - - -
01/01:30am - - - - - SW 33 39 18 21 - - -
01/01:00am - - - - - SW 41 50 22 27 - - -
01/12:57am - - - - - SW 39 50 21 27 - - -
01/12:30am - - - - - SSW 28 30 15 16 - - -
01/12:00am - - - - - SSW 28 35 15 19 - - -
 
Date/Time
EDT
Tmp

°C
App
Tmp
°C
Dew
Point
°C
Rel
Hum
%
Delta-T

°C
Wind Press
QNH
hPa
Press
MSL
hPa
Rain
since
9 am
mm
Dir
 
Spd
km/h
Gust
km/h
Spd
kts
Gust
kts
28/11:30pm - - - - - WSW 19 22 10 12 - - -
28/11:00pm - - - - - WSW 17 20 9 11 - - -
28/10:30pm - - - - - W 19 24 10 13 - - -
28/10:00pm - - - - - WSW 19 24 10 13 - - -
28/09:30pm - - - - - WSW 22 26 12 14 - - -
28/09:00pm - - - - - SW 26 32 14 17 - - -
28/08:30pm - - - - - WSW 43 52 23 28 - - -
28/08:22pm - - - - - WSW 44 78 24 42 - - -
28/08:09pm - - - - - WSW 63 89 34 48 - - -
28/08:05pm - - - - - WSW 59 70 32 38 - - -
28/08:03pm - - - - - SW 35 65 19 35 - - -
28/08:00pm - - - - - SW 30 35 16 19 - - -
28/07:30pm - - - - - SSW 35 41 19 22 - - -
28/07:13pm - - - - - SW 39 50 21 27 - - -
28/07:00pm - - - - - WSW 2 11 1 6 - - -
28/06:30pm - - - - - N 15 20 8 11 - - -
28/06:00pm - - - - - N 24 28 13 15 - - -
28/05:30pm - - - - - NW 11 22 6 12 - - -
28/05:00pm - - - - - E 19 22 10 12 - - -
28/04:30pm - - - - - E 22 24 12 13 - - -
28/04:00pm - - - - - ESE 11 15 6 8 - - -
28/03:30pm - - - - - ESE 11 13 6 7 - - -
28/03:00pm - - - - - E 11 15 6 8 - - -
28/02:30pm - - - - - SE 7 9 4 5 - - -
28/02:00pm - - - - - ESE 11 13 6 7 - - -
28/01:30pm - - - - - SE 9 11 5 6 - - -
28/01:00pm - - - - - ENE 13 15 7 8 - - -
28/12:30pm - - - - - E 9 11 5 6 - - -
28/12:00pm - - - - - CALM 0 2 0 1 - - -
28/11:30am - - - - - S 9 13 5 7 - - -
28/11:00am - - - - - WSW 19 30 10 16 - - -
28/10:30am - - - - - N 11 13 6 7 - - -
28/10:00am - - - - - NE 19 28 10 15 - - -
28/09:30am - - - - - NNE 24 28 13 15 - - -
28/09:00am - - - - - NE 17 19 9 10 - - -
28/08:30am - - - - - NNE 17 19 9 10 - - -
28/08:00am - - - - - NNE 20 24 11 13 - - -
28/07:30am - - - - - NNE 26 30 14 16 - - -
28/07:00am - - - - - NE 20 24 11 13 - - -
28/06:30am - - - - - NNE 19 22 10 12 - - -
28/06:00am - - - - - NNE 26 30 14 16 - - -
28/05:30am - - - - - NNE 19 20 10 11 - - -
28/05:00am - - - - - ENE 28 32 15 17 - - -
28/04:30am - - - - - ENE 26 32 14 17 - - -
28/04:00am - - - - - ENE 20 24 11 13 - - -
28/03:30am - - - - - ENE 19 24 10 13 - - -
28/03:00am - - - - - ENE 19 24 10 13 - - -
28/02:30am - - - - - E 19 24 10 13 - - -
28/02:00am - - - - - E 17 20 9 11 - - -
28/01:30am - - - - - E 11 15 6 8 - - -
28/01:00am - - - - - SE 15 19 8 10 - - -
28/12:30am - - - - - SE 17 20 9 11 - - -
28/12:00am - - - - - SE 17 19 9 10 - - -
 
Date/Time
EDT
Tmp

°C
App
Tmp
°C
Dew
Point
°C
Rel
Hum
%
Delta-T

°C
Wind Press
QNH
hPa
Press
MSL
hPa
Rain
since
9 am
mm
Dir
 
Spd
km/h
Gust
km/h
Spd
kts
Gust
kts
27/11:30pm - - - - - SSE 15 20 8 11 - - -
27/11:00pm - - - - - SSE 15 19 8 10 - - -
27/10:30pm - - - - - S 15 20 8 11 - - -
27/10:00pm - - - - - S 19 22 10 12 - - -
27/09:30pm - - - - - S 19 24 10 13 - - -
27/09:00pm - - - - - S 20 24 11 13 - - -
27/08:30pm - - - - - S 20 24 11 13 - - -
27/08:00pm - - - - - S 22 26 12 14 - - -
27/07:30pm - - - - - S 24 30 13 16 - - -
27/07:00pm - - - - - S 26 32 14 17 - - -
27/06:30pm - - - - - SSE 19 20 10 11 - - -

Latest Capital City Observations: Canberra | Sydney | Melbourne | Brisbane | Adelaide | Perth | Hobart | Darwin

Other Formats:

Comma delimited format used in spreadsheet applications
http://www.bom.gov.au/fwo/IDV60901/IDV60901.94847.axf

JavaScript Object Notation format (JSON) in row-major order
http://www.bom.gov.au/fwo/IDV60901/IDV60901.94847.json